sensor_id;sensor_type;location;lat;lon;timestamp;P1;durP1;ratioP1;P2;durP2;ratioP2
17197;SDS011;8715;51.010;6.812;2023-09-30T00:00:37;897.08;;;837.05;;
17197;SDS011;8715;51.010;6.812;2023-09-30T00:03:23;886.70;;;827.28;;
17197;SDS011;8715;51.010;6.812;2023-09-30T00:06:08;888.97;;;830.17;;
17197;SDS011;8715;51.010;6.812;2023-09-30T00:08:54;890.17;;;831.10;;
17197;SDS011;8715;51.010;6.812;2023-09-30T00:11:40;889.97;;;831.25;;
17197;SDS011;8715;51.010;6.812;2023-09-30T00:14:25;899.20;;;839.17;;
17197;SDS011;8715;51.010;6.812;2023-09-30T00:17:11;891.67;;;832.63;;
17197;SDS011;8715;51.010;6.812;2023-09-30T00:19:56;892.72;;;833.75;;
17197;SDS011;8715;51.010;6.812;2023-09-30T00:22:42;890.92;;;831.97;;
17197;SDS011;8715;51.010;6.812;2023-09-30T00:25:29;896.05;;;836.83;;
17197;SDS011;8715;51.010;6.812;2023-09-30T00:28:15;891.53;;;832.67;;
17197;SDS011;8715;51.010;6.812;2023-09-30T00:31:00;888.10;;;829.28;;
17197;SDS011;8715;51.010;6.812;2023-09-30T00:33:45;894.80;;;835.72;;
17197;SDS011;8715;51.010;6.812;2023-09-30T00:36:32;892.53;;;833.40;;
17197;SDS011;8715;51.010;6.812;2023-09-30T00:39:17;897.22;;;837.40;;
17197;SDS011;8715;51.010;6.812;2023-09-30T00:42:04;888.38;;;829.42;;
17197;SDS011;8715;51.010;6.812;2023-09-30T00:44:49;895.15;;;835.78;;
17197;SDS011;8715;51.010;6.812;2023-09-30T00:47:34;892.33;;;832.92;;
17197;SDS011;8715;51.010;6.812;2023-09-30T00:50:20;890.50;;;831.85;;
17197;SDS011;8715;51.010;6.812;2023-09-30T00:53:05;888.38;;;829.67;;
17197;SDS011;8715;51.010;6.812;2023-09-30T00:55:51;888.40;;;829.47;;
17197;SDS011;8715;51.010;6.812;2023-09-30T00:58:38;893.22;;;833.88;;
17197;SDS011;8715;51.010;6.812;2023-09-30T01:01:24;891.00;;;832.20;;
17197;SDS011;8715;51.010;6.812;2023-09-30T01:04:09;893.58;;;834.20;;
17197;SDS011;8715;51.010;6.812;2023-09-30T01:06:55;891.13;;;832.15;;
17197;SDS011;8715;51.010;6.812;2023-09-30T01:09:41;893.80;;;834.50;;
17197;SDS011;8715;51.010;6.812;2023-09-30T01:12:27;896.03;;;837.03;;
17197;SDS011;8715;51.010;6.812;2023-09-30T01:15:14;891.22;;;832.50;;
17197;SDS011;8715;51.010;6.812;2023-09-30T01:17:59;890.53;;;831.90;;
17197;SDS011;8715;51.010;6.812;2023-09-30T01:20:44;893.58;;;834.35;;
17197;SDS011;8715;51.010;6.812;2023-09-30T01:23:31;893.70;;;834.47;;
17197;SDS011;8715;51.010;6.812;2023-09-30T01:26:17;897.78;;;837.70;;
17197;SDS011;8715;51.010;6.812;2023-09-30T01:29:02;891.80;;;832.20;;
17197;SDS011;8715;51.010;6.812;2023-09-30T01:31:48;891.17;;;831.90;;
17197;SDS011;8715;51.010;6.812;2023-09-30T01:34:33;888.20;;;829.20;;
17197;SDS011;8715;51.010;6.812;2023-09-30T01:37:18;893.47;;;834.08;;
17197;SDS011;8715;51.010;6.812;2023-09-30T01:40:06;891.13;;;832.10;;
17197;SDS011;8715;51.010;6.812;2023-09-30T01:42:55;886.55;;;827.55;;
17197;SDS011;8715;51.010;6.812;2023-09-30T01:45:41;887.25;;;828.33;;
17197;SDS011;8715;51.010;6.812;2023-09-30T01:48:26;897.45;;;837.70;;
17197;SDS011;8715;51.010;6.812;2023-09-30T01:51:12;890.50;;;831.50;;
17197;SDS011;8715;51.010;6.812;2023-09-30T01:53:57;893.60;;;834.13;;
17197;SDS011;8715;51.010;6.812;2023-09-30T01:56:44;889.58;;;830.42;;
17197;SDS011;8715;51.010;6.812;2023-09-30T01:59:29;902.25;;;842.22;;
17197;SDS011;8715;51.010;6.812;2023-09-30T02:02:14;887.95;;;829.83;;
17197;SDS011;8715;51.010;6.812;2023-09-30T02:05:01;893.13;;;833.88;;
17197;SDS011;8715;51.010;6.812;2023-09-30T02:07:46;890.70;;;832.13;;
17197;SDS011;8715;51.010;6.812;2023-09-30T02:10:31;891.97;;;832.95;;
17197;SDS011;8715;51.010;6.812;2023-09-30T02:13:18;890.17;;;831.20;;
17197;SDS011;8715;51.010;6.812;2023-09-30T02:16:04;890.65;;;831.70;;
17197;SDS011;8715;51.010;6.812;2023-09-30T02:18:49;894.05;;;834.85;;
17197;SDS011;8715;51.010;6.812;2023-09-30T02:21:35;891.30;;;832.75;;
17197;SDS011;8715;51.010;6.812;2023-09-30T02:24:21;888.28;;;830.03;;
17197;SDS011;8715;51.010;6.812;2023-09-30T02:27:06;889.78;;;831.58;;
17197;SDS011;8715;51.010;6.812;2023-09-30T02:29:53;884.35;;;826.72;;
17197;SDS011;8715;51.010;6.812;2023-09-30T02:32:38;889.10;;;830.70;;
17197;SDS011;8715;51.010;6.812;2023-09-30T02:35:24;889.67;;;831.63;;
17197;SDS011;8715;51.010;6.812;2023-09-30T02:38:10;891.35;;;832.97;;
17197;SDS011;8715;51.010;6.812;2023-09-30T02:40:55;888.83;;;830.97;;
17197;SDS011;8715;51.010;6.812;2023-09-30T02:43:41;890.83;;;832.75;;
17197;SDS011;8715;51.010;6.812;2023-09-30T02:46:27;894.97;;;836.63;;
17197;SDS011;8715;51.010;6.812;2023-09-30T02:49:12;889.65;;;831.22;;
17197;SDS011;8715;51.010;6.812;2023-09-30T02:51:58;883.90;;;826.38;;
17197;SDS011;8715;51.010;6.812;2023-09-30T02:54:44;888.25;;;830.10;;
17197;SDS011;8715;51.010;6.812;2023-09-30T02:57:29;881.30;;;824.03;;
17197;SDS011;8715;51.010;6.812;2023-09-30T03:00:16;887.20;;;829.60;;
17197;SDS011;8715;51.010;6.812;2023-09-30T03:03:08;883.92;;;826.65;;
17197;SDS011;8715;51.010;6.812;2023-09-30T03:05:53;885.00;;;827.60;;
17197;SDS011;8715;51.010;6.812;2023-09-30T03:08:38;892.45;;;834.42;;
17197;SDS011;8715;51.010;6.812;2023-09-30T03:11:24;889.03;;;831.00;;
17197;SDS011;8715;51.010;6.812;2023-09-30T03:14:11;891.75;;;833.92;;
17197;SDS011;8715;51.010;6.812;2023-09-30T03:16:57;880.58;;;823.45;;
17197;SDS011;8715;51.010;6.812;2023-09-30T03:19:43;880.15;;;823.03;;
17197;SDS011;8715;51.010;6.812;2023-09-30T03:22:29;881.75;;;824.25;;
17197;SDS011;8715;51.010;6.812;2023-09-30T03:25:15;883.97;;;826.85;;
17197;SDS011;8715;51.010;6.812;2023-09-30T03:28:02;886.92;;;829.50;;
17197;SDS011;8715;51.010;6.812;2023-09-30T03:30:49;881.00;;;823.95;;
17197;SDS011;8715;51.010;6.812;2023-09-30T03:33:35;884.67;;;827.78;;
17197;SDS011;8715;51.010;6.812;2023-09-30T03:36:22;877.90;;;820.83;;
17197;SDS011;8715;51.010;6.812;2023-09-30T03:39:08;886.22;;;828.72;;
17197;SDS011;8715;51.010;6.812;2023-09-30T03:41:58;879.00;;;821.25;;
17197;SDS011;8715;51.010;6.812;2023-09-30T03:44:44;878.28;;;821.45;;
17197;SDS011;8715;51.010;6.812;2023-09-30T03:47:31;889.08;;;830.95;;
17197;SDS011;8715;51.010;6.812;2023-09-30T03:50:16;887.40;;;829.70;;
17197;SDS011;8715;51.010;6.812;2023-09-30T03:53:03;883.13;;;825.78;;
17197;SDS011;8715;51.010;6.812;2023-09-30T03:55:51;883.45;;;826.15;;
17197;SDS011;8715;51.010;6.812;2023-09-30T03:58:36;883.20;;;826.05;;
17197;SDS011;8715;51.010;6.812;2023-09-30T04:01:22;883.28;;;826.13;;
17197;SDS011;8715;51.010;6.812;2023-09-30T04:04:09;889.40;;;831.92;;
17197;SDS011;8715;51.010;6.812;2023-09-30T04:06:54;884.03;;;826.92;;
17197;SDS011;8715;51.010;6.812;2023-09-30T04:09:41;888.20;;;830.78;;
17197;SDS011;8715;51.010;6.812;2023-09-30T04:12:27;879.25;;;823.08;;
17197;SDS011;8715;51.010;6.812;2023-09-30T04:15:12;881.42;;;824.30;;
17197;SDS011;8715;51.010;6.812;2023-09-30T04:17:57;886.05;;;828.65;;
17197;SDS011;8715;51.010;6.812;2023-09-30T04:20:42;881.13;;;824.03;;
17197;SDS011;8715;51.010;6.812;2023-09-30T04:23:30;886.85;;;830.10;;
17197;SDS011;8715;51.010;6.812;2023-09-30T04:26:16;885.47;;;828.83;;
17197;SDS011;8715;51.010;6.812;2023-09-30T04:29:02;882.45;;;826.03;;
17197;SDS011;8715;51.010;6.812;2023-09-30T04:31:54;875.03;;;819.35;;
17197;SDS011;8715;51.010;6.812;2023-09-30T04:34:40;886.40;;;829.55;;
17197;SDS011;8715;51.010;6.812;2023-09-30T04:37:25;880.50;;;824.42;;
17197;SDS011;8715;51.010;6.812;2023-09-30T04:40:10;879.60;;;823.65;;
17197;SDS011;8715;51.010;6.812;2023-09-30T04:43:00;883.65;;;824.75;;
17197;SDS011;8715;51.010;6.812;2023-09-30T04:45:46;880.38;;;822.78;;
17197;SDS011;8715;51.010;6.812;2023-09-30T04:48:33;877.58;;;821.33;;
17197;SDS011;8715;51.010;6.812;2023-09-30T04:51:18;883.38;;;827.17;;
17197;SDS011;8715;51.010;6.812;2023-09-30T04:54:04;879.88;;;823.53;;
17197;SDS011;8715;51.010;6.812;2023-09-30T04:56:50;878.83;;;822.65;;
17197;SDS011;8715;51.010;6.812;2023-09-30T04:59:37;881.20;;;825.00;;
17197;SDS011;8715;51.010;6.812;2023-09-30T05:02:22;878.03;;;821.72;;
17197;SDS011;8715;51.010;6.812;2023-09-30T05:05:08;877.10;;;821.10;;
17197;SDS011;8715;51.010;6.812;2023-09-30T05:07:53;883.83;;;826.88;;
17197;SDS011;8715;51.010;6.812;2023-09-30T05:10:39;878.80;;;822.88;;
17197;SDS011;8715;51.010;6.812;2023-09-30T05:13:24;877.78;;;821.95;;
17197;SDS011;8715;51.010;6.812;2023-09-30T05:16:11;880.58;;;824.33;;
17197;SDS011;8715;51.010;6.812;2023-09-30T05:18:56;876.13;;;820.75;;
17197;SDS011;8715;51.010;6.812;2023-09-30T05:21:42;877.38;;;821.13;;
17197;SDS011;8715;51.010;6.812;2023-09-30T05:24:28;877.78;;;821.97;;
17197;SDS011;8715;51.010;6.812;2023-09-30T05:27:14;875.38;;;819.80;;
17197;SDS011;8715;51.010;6.812;2023-09-30T05:29:59;875.38;;;820.05;;
17197;SDS011;8715;51.010;6.812;2023-09-30T05:32:46;878.65;;;822.35;;
17197;SDS011;8715;51.010;6.812;2023-09-30T05:35:31;873.45;;;818.00;;
17197;SDS011;8715;51.010;6.812;2023-09-30T05:38:17;875.80;;;820.13;;
17197;SDS011;8715;51.010;6.812;2023-09-30T05:41:03;874.13;;;818.67;;
17197;SDS011;8715;51.010;6.812;2023-09-30T05:43:50;875.80;;;820.03;;
17197;SDS011;8715;51.010;6.812;2023-09-30T05:46:35;883.63;;;827.28;;
17197;SDS011;8715;51.010;6.812;2023-09-30T05:49:22;871.80;;;816.35;;
17197;SDS011;8715;51.010;6.812;2023-09-30T05:52:07;880.25;;;824.13;;
17197;SDS011;8715;51.010;6.812;2023-09-30T05:54:52;883.88;;;826.95;;
17197;SDS011;8715;51.010;6.812;2023-09-30T05:57:37;881.67;;;824.78;;
17197;SDS011;8715;51.010;6.812;2023-09-30T06:00:23;884.05;;;826.72;;
17197;SDS011;8715;51.010;6.812;2023-09-30T06:03:12;889.53;;;831.15;;
17197;SDS011;8715;51.010;6.812;2023-09-30T06:05:58;886.70;;;827.85;;
17197;SDS011;8715;51.010;6.812;2023-09-30T06:08:44;895.10;;;835.33;;
17197;SDS011;8715;51.010;6.812;2023-09-30T06:11:30;902.55;;;841.25;;
17197;SDS011;8715;51.010;6.812;2023-09-30T06:14:15;899.80;;;838.45;;
17197;SDS011;8715;51.010;6.812;2023-09-30T06:17:01;913.30;;;849.65;;
17197;SDS011;8715;51.010;6.812;2023-09-30T06:19:46;917.72;;;852.63;;
17197;SDS011;8715;51.010;6.812;2023-09-30T06:22:33;925.42;;;858.42;;
17197;SDS011;8715;51.010;6.812;2023-09-30T06:25:19;929.95;;;861.28;;
17197;SDS011;8715;51.010;6.812;2023-09-30T06:28:05;933.88;;;863.80;;
17197;SDS011;8715;51.010;6.812;2023-09-30T06:30:51;933.50;;;862.97;;
17197;SDS011;8715;51.010;6.812;2023-09-30T06:33:37;936.95;;;865.65;;
17197;SDS011;8715;51.010;6.812;2023-09-30T06:36:23;933.20;;;862.17;;
17197;SDS011;8715;51.010;6.812;2023-09-30T06:39:10;935.28;;;864.20;;
17197;SDS011;8715;51.010;6.812;2023-09-30T06:41:55;933.75;;;862.40;;
17197;SDS011;8715;51.010;6.812;2023-09-30T06:44:40;935.40;;;864.53;;
17197;SDS011;8715;51.010;6.812;2023-09-30T06:47:26;933.00;;;862.92;;
17197;SDS011;8715;51.010;6.812;2023-09-30T06:50:11;931.45;;;861.38;;
17197;SDS011;8715;51.010;6.812;2023-09-30T06:52:59;928.70;;;859.97;;
17197;SDS011;8715;51.010;6.812;2023-09-30T06:55:46;932.20;;;863.00;;
17197;SDS011;8715;51.010;6.812;2023-09-30T06:58:31;928.80;;;859.80;;
17197;SDS011;8715;51.010;6.812;2023-09-30T07:01:17;925.10;;;857.03;;
17197;SDS011;8715;51.010;6.812;2023-09-30T07:04:02;932.45;;;863.63;;
17197;SDS011;8715;51.010;6.812;2023-09-30T07:06:47;924.22;;;856.67;;
17197;SDS011;8715;51.010;6.812;2023-09-30T07:09:32;928.85;;;861.13;;
17197;SDS011;8715;51.010;6.812;2023-09-30T07:12:19;925.45;;;857.92;;
17197;SDS011;8715;51.010;6.812;2023-09-30T07:15:05;927.72;;;860.10;;
17197;SDS011;8715;51.010;6.812;2023-09-30T07:17:51;924.38;;;857.15;;
17197;SDS011;8715;51.010;6.812;2023-09-30T07:20:36;922.25;;;855.03;;
17197;SDS011;8715;51.010;6.812;2023-09-30T07:23:21;924.30;;;857.08;;
17197;SDS011;8715;51.010;6.812;2023-09-30T07:26:06;921.65;;;854.40;;
17197;SDS011;8715;51.010;6.812;2023-09-30T07:28:53;925.65;;;858.25;;
17197;SDS011;8715;51.010;6.812;2023-09-30T07:31:40;921.83;;;854.65;;
17197;SDS011;8715;51.010;6.812;2023-09-30T07:34:25;929.20;;;861.53;;
17197;SDS011;8715;51.010;6.812;2023-09-30T07:37:10;928.78;;;860.15;;
17197;SDS011;8715;51.010;6.812;2023-09-30T07:39:58;933.03;;;864.50;;
17197;SDS011;8715;51.010;6.812;2023-09-30T07:42:43;926.00;;;858.15;;
17197;SDS011;8715;51.010;6.812;2023-09-30T07:45:30;925.10;;;856.72;;
17197;SDS011;8715;51.010;6.812;2023-09-30T07:48:16;926.78;;;858.40;;
17197;SDS011;8715;51.010;6.812;2023-09-30T07:51:01;929.13;;;860.67;;
17197;SDS011;8715;51.010;6.812;2023-09-30T07:53:47;925.65;;;856.80;;
17197;SDS011;8715;51.010;6.812;2023-09-30T07:56:32;928.28;;;859.17;;
17197;SDS011;8715;51.010;6.812;2023-09-30T07:59:17;928.28;;;858.72;;
17197;SDS011;8715;51.010;6.812;2023-09-30T08:02:04;929.20;;;859.90;;
17197;SDS011;8715;51.010;6.812;2023-09-30T08:04:51;930.65;;;860.85;;
17197;SDS011;8715;51.010;6.812;2023-09-30T08:07:36;929.90;;;860.35;;
17197;SDS011;8715;51.010;6.812;2023-09-30T08:10:22;930.40;;;860.38;;
17197;SDS011;8715;51.010;6.812;2023-09-30T08:13:07;929.78;;;860.25;;
17197;SDS011;8715;51.010;6.812;2023-09-30T08:15:53;931.13;;;860.63;;
17197;SDS011;8715;51.010;6.812;2023-09-30T08:18:39;935.08;;;864.50;;
17197;SDS011;8715;51.010;6.812;2023-09-30T08:21:24;931.75;;;861.17;;
17197;SDS011;8715;51.010;6.812;2023-09-30T08:24:10;936.08;;;864.67;;
17197;SDS011;8715;51.010;6.812;2023-09-30T08:26:55;937.00;;;865.17;;
17197;SDS011;8715;51.010;6.812;2023-09-30T08:29:41;934.30;;;863.05;;
17197;SDS011;8715;51.010;6.812;2023-09-30T08:32:27;938.65;;;866.97;;
17197;SDS011;8715;51.010;6.812;2023-09-30T08:35:14;935.97;;;864.42;;
17197;SDS011;8715;51.010;6.812;2023-09-30T08:37:59;932.58;;;861.47;;
17197;SDS011;8715;51.010;6.812;2023-09-30T08:40:46;935.00;;;863.42;;
17197;SDS011;8715;51.010;6.812;2023-09-30T08:43:32;942.50;;;870.15;;
17197;SDS011;8715;51.010;6.812;2023-09-30T08:46:23;936.05;;;863.85;;
17197;SDS011;8715;51.010;6.812;2023-09-30T08:49:09;943.22;;;870.92;;
17197;SDS011;8715;51.010;6.812;2023-09-30T08:51:57;941.72;;;868.78;;
17197;SDS011;8715;51.010;6.812;2023-09-30T08:54:43;939.17;;;866.33;;
17197;SDS011;8715;51.010;6.812;2023-09-30T08:57:28;941.42;;;868.33;;
17197;SDS011;8715;51.010;6.812;2023-09-30T09:00:14;947.50;;;873.65;;
17197;SDS011;8715;51.010;6.812;2023-09-30T09:02:59;944.45;;;870.97;;
17197;SDS011;8715;51.010;6.812;2023-09-30T09:05:45;944.72;;;871.03;;
17197;SDS011;8715;51.010;6.812;2023-09-30T09:08:32;945.25;;;871.35;;
17197;SDS011;8715;51.010;6.812;2023-09-30T09:11:17;946.40;;;872.55;;
17197;SDS011;8715;51.010;6.812;2023-09-30T09:14:03;941.28;;;868.10;;
17197;SDS011;8715;51.010;6.812;2023-09-30T09:16:51;941.83;;;869.03;;
17197;SDS011;8715;51.010;6.812;2023-09-30T09:19:38;940.08;;;867.20;;
17197;SDS011;8715;51.010;6.812;2023-09-30T09:22:23;939.10;;;866.53;;
17197;SDS011;8715;51.010;6.812;2023-09-30T09:25:10;944.63;;;871.10;;
17197;SDS011;8715;51.010;6.812;2023-09-30T09:27:56;946.67;;;872.70;;
17197;SDS011;8715;51.010;6.812;2023-09-30T09:30:41;949.15;;;874.40;;
17197;SDS011;8715;51.010;6.812;2023-09-30T09:33:34;948.42;;;873.83;;
17197;SDS011;8715;51.010;6.812;2023-09-30T09:36:20;950.13;;;874.83;;
17197;SDS011;8715;51.010;6.812;2023-09-30T09:39:06;950.65;;;874.38;;
17197;SDS011;8715;51.010;6.812;2023-09-30T09:41:52;953.97;;;877.53;;
17197;SDS011;8715;51.010;6.812;2023-09-30T09:44:41;956.97;;;879.75;;
17197;SDS011;8715;51.010;6.812;2023-09-30T09:47:26;954.97;;;877.72;;
17197;SDS011;8715;51.010;6.812;2023-09-30T09:50:12;957.65;;;880.28;;
17197;SDS011;8715;51.010;6.812;2023-09-30T09:52:58;956.47;;;878.78;;
17197;SDS011;8715;51.010;6.812;2023-09-30T09:55:44;953.25;;;875.78;;
17197;SDS011;8715;51.010;6.812;2023-09-30T09:58:33;955.13;;;877.60;;
17197;SDS011;8715;51.010;6.812;2023-09-30T10:01:20;954.58;;;877.00;;
17197;SDS011;8715;51.010;6.812;2023-09-30T10:04:05;958.95;;;880.90;;
17197;SDS011;8715;51.010;6.812;2023-09-30T10:06:51;955.70;;;878.08;;
17197;SDS011;8715;51.010;6.812;2023-09-30T10:09:39;954.25;;;877.10;;
17197;SDS011;8715;51.010;6.812;2023-09-30T10:12:26;957.10;;;879.65;;
17197;SDS011;8715;51.010;6.812;2023-09-30T10:18:23;954.50;;;877.78;;
17197;SDS011;8715;51.010;6.812;2023-09-30T10:21:08;952.35;;;875.97;;
17197;SDS011;8715;51.010;6.812;2023-09-30T10:24:02;953.92;;;877.22;;
17197;SDS011;8715;51.010;6.812;2023-09-30T10:27:29;950.28;;;874.50;;
17197;SDS011;8715;51.010;6.812;2023-09-30T10:30:20;952.08;;;876.33;;
17197;SDS011;8715;51.010;6.812;2023-09-30T10:33:14;947.78;;;872.28;;
17197;SDS011;8715;51.010;6.812;2023-09-30T10:35:59;952.90;;;876.88;;
17197;SDS011;8715;51.010;6.812;2023-09-30T10:38:44;950.08;;;873.83;;
17197;SDS011;8715;51.010;6.812;2023-09-30T10:41:48;954.63;;;877.88;;
17197;SDS011;8715;51.010;6.812;2023-09-30T10:44:34;951.42;;;875.05;;
17197;SDS011;8715;51.010;6.812;2023-09-30T10:47:35;954.95;;;877.20;;
17197;SDS011;8715;51.010;6.812;2023-09-30T10:53:36;963.60;;;884.78;;
17197;SDS011;8715;51.010;6.812;2023-09-30T10:56:32;960.40;;;881.15;;
17197;SDS011;8715;51.010;6.812;2023-09-30T10:59:18;961.10;;;881.65;;
17197;SDS011;8715;51.010;6.812;2023-09-30T11:02:03;956.92;;;877.42;;
17197;SDS011;8715;51.010;6.812;2023-09-30T11:04:49;960.65;;;881.28;;
17197;SDS011;8715;51.010;6.812;2023-09-30T11:07:35;964.55;;;884.25;;
17197;SDS011;8715;51.010;6.812;2023-09-30T11:10:22;964.47;;;884.15;;
17197;SDS011;8715;51.010;6.812;2023-09-30T11:13:08;963.78;;;883.05;;
17197;SDS011;8715;51.010;6.812;2023-09-30T11:15:59;967.83;;;886.35;;
17197;SDS011;8715;51.010;6.812;2023-09-30T11:18:45;965.15;;;884.85;;
17197;SDS011;8715;51.010;6.812;2023-09-30T11:21:30;964.95;;;883.92;;
17197;SDS011;8715;51.010;6.812;2023-09-30T11:24:17;964.45;;;883.63;;
17197;SDS011;8715;51.010;6.812;2023-09-30T11:27:02;963.63;;;882.47;;
17197;SDS011;8715;51.010;6.812;2023-09-30T11:29:48;964.53;;;883.30;;
17197;SDS011;8715;51.010;6.812;2023-09-30T11:32:33;964.05;;;883.05;;
17197;SDS011;8715;51.010;6.812;2023-09-30T11:35:22;964.20;;;883.88;;
17197;SDS011;8715;51.010;6.812;2023-09-30T11:38:07;963.28;;;882.85;;
17197;SDS011;8715;51.010;6.812;2023-09-30T11:41:01;966.03;;;886.05;;
17197;SDS011;8715;51.010;6.812;2023-09-30T11:44:00;956.33;;;877.60;;
17197;SDS011;8715;51.010;6.812;2023-09-30T11:46:49;955.13;;;876.92;;
17197;SDS011;8715;51.010;6.812;2023-09-30T11:49:37;960.05;;;881.58;;
17197;SDS011;8715;51.010;6.812;2023-09-30T11:52:26;956.50;;;878.50;;
17197;SDS011;8715;51.010;6.812;2023-09-30T11:55:11;951.53;;;874.25;;
17197;SDS011;8715;51.010;6.812;2023-09-30T11:57:58;957.55;;;880.38;;
17197;SDS011;8715;51.010;6.812;2023-09-30T12:00:44;957.35;;;880.08;;
17197;SDS011;8715;51.010;6.812;2023-09-30T12:03:30;949.08;;;873.17;;
17197;SDS011;8715;51.010;6.812;2023-09-30T12:06:15;950.80;;;874.60;;
17197;SDS011;8715;51.010;6.812;2023-09-30T12:09:00;951.22;;;875.30;;
17197;SDS011;8715;51.010;6.812;2023-09-30T12:11:46;950.35;;;874.53;;
17197;SDS011;8715;51.010;6.812;2023-09-30T12:14:33;949.20;;;873.13;;
17197;SDS011;8715;51.010;6.812;2023-09-30T12:17:18;951.60;;;875.53;;
17197;SDS011;8715;51.010;6.812;2023-09-30T12:20:07;950.42;;;874.50;;
17197;SDS011;8715;51.010;6.812;2023-09-30T12:22:53;951.22;;;874.70;;
17197;SDS011;8715;51.010;6.812;2023-09-30T12:25:38;954.45;;;877.45;;
17197;SDS011;8715;51.010;6.812;2023-09-30T12:28:24;954.67;;;877.90;;
17197;SDS011;8715;51.010;6.812;2023-09-30T12:31:12;954.13;;;876.78;;
17197;SDS011;8715;51.010;6.812;2023-09-30T12:33:57;957.33;;;879.30;;
17197;SDS011;8715;51.010;6.812;2023-09-30T12:36:43;955.20;;;877.47;;
17197;SDS011;8715;51.010;6.812;2023-09-30T12:39:29;959.30;;;880.70;;
17197;SDS011;8715;51.010;6.812;2023-09-30T12:42:16;957.67;;;879.15;;
17197;SDS011;8715;51.010;6.812;2023-09-30T12:45:02;959.22;;;880.67;;
17197;SDS011;8715;51.010;6.812;2023-09-30T12:47:50;962.72;;;883.92;;
17197;SDS011;8715;51.010;6.812;2023-09-30T12:50:37;954.22;;;876.42;;
17197;SDS011;8715;51.010;6.812;2023-09-30T12:53:23;955.60;;;877.65;;
17197;SDS011;8715;51.010;6.812;2023-09-30T12:56:08;955.13;;;877.22;;
17197;SDS011;8715;51.010;6.812;2023-09-30T12:58:53;961.78;;;883.35;;
17197;SDS011;8715;51.010;6.812;2023-09-30T13:01:39;957.60;;;879.42;;
17197;SDS011;8715;51.010;6.812;2023-09-30T13:04:26;959.45;;;880.78;;
17197;SDS011;8715;51.010;6.812;2023-09-30T13:07:11;956.13;;;877.75;;
17197;SDS011;8715;51.010;6.812;2023-09-30T13:09:56;959.05;;;880.60;;
17197;SDS011;8715;51.010;6.812;2023-09-30T13:12:42;956.63;;;878.38;;
17197;SDS011;8715;51.010;6.812;2023-09-30T13:15:28;961.72;;;882.95;;
17197;SDS011;8715;51.010;6.812;2023-09-30T13:18:13;958.55;;;879.80;;
17197;SDS011;8715;51.010;6.812;2023-09-30T13:20:59;957.03;;;878.20;;
17197;SDS011;8715;51.010;6.812;2023-09-30T13:23:45;960.15;;;881.10;;
17197;SDS011;8715;51.010;6.812;2023-09-30T13:26:30;958.78;;;879.53;;
17197;SDS011;8715;51.010;6.812;2023-09-30T13:29:16;960.63;;;881.92;;
17197;SDS011;8715;51.010;6.812;2023-09-30T13:32:01;961.90;;;882.60;;
17197;SDS011;8715;51.010;6.812;2023-09-30T13:34:47;960.17;;;881.13;;
17197;SDS011;8715;51.010;6.812;2023-09-30T13:37:34;963.38;;;884.05;;
17197;SDS011;8715;51.010;6.812;2023-09-30T13:40:20;959.17;;;879.60;;
17197;SDS011;8715;51.010;6.812;2023-09-30T13:43:05;963.03;;;882.88;;
17197;SDS011;8715;51.010;6.812;2023-09-30T13:45:51;959.95;;;879.75;;
17197;SDS011;8715;51.010;6.812;2023-09-30T13:48:36;966.63;;;885.60;;
17197;SDS011;8715;51.010;6.812;2023-09-30T13:51:21;961.60;;;881.35;;
17197;SDS011;8715;51.010;6.812;2023-09-30T13:54:08;962.13;;;881.58;;
17197;SDS011;8715;51.010;6.812;2023-09-30T13:56:53;963.45;;;883.00;;
17197;SDS011;8715;51.010;6.812;2023-09-30T13:59:39;967.72;;;887.30;;
17197;SDS011;8715;51.010;6.812;2023-09-30T14:02:25;961.92;;;882.22;;
17197;SDS011;8715;51.010;6.812;2023-09-30T14:05:10;960.03;;;880.78;;
17197;SDS011;8715;51.010;6.812;2023-09-30T14:07:57;962.58;;;883.53;;
17197;SDS011;8715;51.010;6.812;2023-09-30T14:10:43;956.05;;;877.58;;
17197;SDS011;8715;51.010;6.812;2023-09-30T14:13:29;957.35;;;879.00;;
17197;SDS011;8715;51.010;6.812;2023-09-30T14:16:14;955.38;;;877.78;;
17197;SDS011;8715;51.010;6.812;2023-09-30T14:19:00;955.03;;;877.15;;
17197;SDS011;8715;51.010;6.812;2023-09-30T14:21:46;953.65;;;876.25;;
17197;SDS011;8715;51.010;6.812;2023-09-30T14:24:32;954.60;;;877.13;;
17197;SDS011;8715;51.010;6.812;2023-09-30T14:27:19;959.13;;;881.28;;
17197;SDS011;8715;51.010;6.812;2023-09-30T14:30:05;955.60;;;878.03;;
17197;SDS011;8715;51.010;6.812;2023-09-30T14:32:52;952.13;;;875.05;;
17197;SDS011;8715;51.010;6.812;2023-09-30T14:35:37;958.85;;;881.50;;
17197;SDS011;8715;51.010;6.812;2023-09-30T14:38:22;954.47;;;877.65;;
17197;SDS011;8715;51.010;6.812;2023-09-30T14:41:09;953.40;;;876.55;;
17197;SDS011;8715;51.010;6.812;2023-09-30T14:43:56;952.72;;;875.97;;
17197;SDS011;8715;51.010;6.812;2023-09-30T14:46:41;957.08;;;879.60;;
17197;SDS011;8715;51.010;6.812;2023-09-30T14:49:28;955.40;;;878.42;;
17197;SDS011;8715;51.010;6.812;2023-09-30T14:52:15;953.30;;;876.17;;
17197;SDS011;8715;51.010;6.812;2023-09-30T14:55:00;953.35;;;876.47;;
17197;SDS011;8715;51.010;6.812;2023-09-30T14:57:46;953.10;;;876.13;;
17197;SDS011;8715;51.010;6.812;2023-09-30T15:00:32;953.55;;;876.38;;
17197;SDS011;8715;51.010;6.812;2023-09-30T15:03:17;955.33;;;878.15;;
17197;SDS011;8715;51.010;6.812;2023-09-30T15:06:05;955.70;;;878.33;;
17197;SDS011;8715;51.010;6.812;2023-09-30T15:08:50;952.35;;;875.15;;
17197;SDS011;8715;51.010;6.812;2023-09-30T15:11:36;956.45;;;879.45;;
17197;SDS011;8715;51.010;6.812;2023-09-30T15:14:21;952.45;;;875.78;;
17197;SDS011;8715;51.010;6.812;2023-09-30T15:17:08;952.92;;;876.17;;
17197;SDS011;8715;51.010;6.812;2023-09-30T15:19:53;951.55;;;875.05;;
17197;SDS011;8715;51.010;6.812;2023-09-30T15:22:38;950.28;;;873.78;;
17197;SDS011;8715;51.010;6.812;2023-09-30T15:25:24;954.78;;;878.25;;
17197;SDS011;8715;51.010;6.812;2023-09-30T15:28:10;952.33;;;876.03;;
17197;SDS011;8715;51.010;6.812;2023-09-30T15:30:56;953.17;;;876.65;;
17197;SDS011;8715;51.010;6.812;2023-09-30T15:33:43;951.53;;;874.95;;
17197;SDS011;8715;51.010;6.812;2023-09-30T15:36:28;954.05;;;877.28;;
17197;SDS011;8715;51.010;6.812;2023-09-30T15:39:14;949.05;;;872.60;;
17197;SDS011;8715;51.010;6.812;2023-09-30T15:42:00;951.92;;;875.70;;
17197;SDS011;8715;51.010;6.812;2023-09-30T15:44:45;951.65;;;874.92;;
17197;SDS011;8715;51.010;6.812;2023-09-30T15:47:30;948.60;;;872.20;;
17197;SDS011;8715;51.010;6.812;2023-09-30T15:50:16;949.97;;;873.63;;
17197;SDS011;8715;51.010;6.812;2023-09-30T15:53:02;949.55;;;873.88;;
17197;SDS011;8715;51.010;6.812;2023-09-30T15:55:47;950.30;;;874.13;;
17197;SDS011;8715;51.010;6.812;2023-09-30T15:58:32;953.40;;;877.22;;
17197;SDS011;8715;51.010;6.812;2023-09-30T16:01:18;948.67;;;872.75;;
17197;SDS011;8715;51.010;6.812;2023-09-30T16:04:03;957.13;;;881.10;;